sensor_id;sensor_type;location;lat;lon;timestamp;P1;durP1;ratioP1;P2;durP2;ratioP2
70126;SDS011;57491;42.694;23.314;2023-03-19T00:02:03;24.27;;;12.75;;
70126;SDS011;57491;42.694;23.314;2023-03-19T00:04:31;20.10;;;12.40;;
70126;SDS011;57491;42.694;23.314;2023-03-19T00:07:00;20.67;;;12.30;;
70126;SDS011;57491;42.694;23.314;2023-03-19T00:09:27;21.38;;;11.73;;
70126;SDS011;57491;42.694;23.314;2023-03-19T00:11:54;21.67;;;13.07;;
70126;SDS011;57491;42.694;23.314;2023-03-19T00:14:21;25.60;;;13.15;;
70126;SDS011;57491;42.694;23.314;2023-03-19T00:16:48;23.83;;;13.13;;
70126;SDS011;57491;42.694;23.314;2023-03-19T00:19:15;27.15;;;15.10;;
70126;SDS011;57491;42.694;23.314;2023-03-19T00:21:42;25.55;;;13.23;;
70126;SDS011;57491;42.694;23.314;2023-03-19T00:24:11;24.27;;;13.25;;
70126;SDS011;57491;42.694;23.314;2023-03-19T00:26:38;23.90;;;13.30;;
70126;SDS011;57491;42.694;23.314;2023-03-19T00:29:06;23.75;;;14.45;;
70126;SDS011;57491;42.694;23.314;2023-03-19T00:31:33;23.45;;;13.50;;
70126;SDS011;57491;42.694;23.314;2023-03-19T00:34:00;19.52;;;12.48;;
70126;SDS011;57491;42.694;23.314;2023-03-19T00:38:55;20.48;;;11.15;;
70126;SDS011;57491;42.694;23.314;2023-03-19T00:41:24;21.30;;;11.18;;
70126;SDS011;57491;42.694;23.314;2023-03-19T00:43:52;22.77;;;11.30;;
70126;SDS011;57491;42.694;23.314;2023-03-19T00:46:19;24.27;;;12.27;;
70126;SDS011;57491;42.694;23.314;2023-03-19T00:48:47;25.20;;;12.98;;
70126;SDS011;57491;42.694;23.314;2023-03-19T00:51:15;20.52;;;11.32;;
70126;SDS011;57491;42.694;23.314;2023-03-19T00:53:42;27.77;;;11.38;;
70126;SDS011;57491;42.694;23.314;2023-03-19T00:56:10;22.90;;;11.43;;
70126;SDS011;57491;42.694;23.314;2023-03-19T00:58:40;18.80;;;10.45;;
70126;SDS011;57491;42.694;23.314;2023-03-19T01:01:07;17.40;;;9.95;;
70126;SDS011;57491;42.694;23.314;2023-03-19T01:03:35;17.83;;;9.50;;
70126;SDS011;57491;42.694;23.314;2023-03-19T01:06:03;23.38;;;10.88;;
70126;SDS011;57491;42.694;23.314;2023-03-19T01:08:30;18.92;;;11.07;;
70126;SDS011;57491;42.694;23.314;2023-03-19T01:11:03;18.53;;;9.83;;
70126;SDS011;57491;42.694;23.314;2023-03-19T01:13:31;16.90;;;9.68;;
70126;SDS011;57491;42.694;23.314;2023-03-19T01:15:59;21.87;;;10.23;;
70126;SDS011;57491;42.694;23.314;2023-03-19T01:18:26;22.92;;;11.07;;
70126;SDS011;57491;42.694;23.314;2023-03-19T01:20:53;20.45;;;10.43;;
70126;SDS011;57491;42.694;23.314;2023-03-19T01:23:21;21.30;;;11.00;;
70126;SDS011;57491;42.694;23.314;2023-03-19T01:25:48;17.38;;;10.25;;
70126;SDS011;57491;42.694;23.314;2023-03-19T01:28:15;22.70;;;11.18;;
70126;SDS011;57491;42.694;23.314;2023-03-19T01:30:42;21.92;;;10.70;;
70126;SDS011;57491;42.694;23.314;2023-03-19T01:33:11;20.93;;;11.67;;
70126;SDS011;57491;42.694;23.314;2023-03-19T01:35:38;21.40;;;12.45;;
70126;SDS011;57491;42.694;23.314;2023-03-19T01:38:05;20.05;;;11.93;;
70126;SDS011;57491;42.694;23.314;2023-03-19T01:40:32;23.20;;;12.40;;
70126;SDS011;57491;42.694;23.314;2023-03-19T01:43:11;24.20;;;12.38;;
70126;SDS011;57491;42.694;23.314;2023-03-19T01:45:42;24.25;;;14.20;;
70126;SDS011;57491;42.694;23.314;2023-03-19T01:48:15;32.35;;;15.57;;
70126;SDS011;57491;42.694;23.314;2023-03-19T01:50:46;28.20;;;14.70;;
70126;SDS011;57491;42.694;23.314;2023-03-19T01:53:18;28.98;;;16.40;;
70126;SDS011;57491;42.694;23.314;2023-03-19T01:55:48;27.60;;;16.10;;
70126;SDS011;57491;42.694;23.314;2023-03-19T01:58:17;27.40;;;16.35;;
70126;SDS011;57491;42.694;23.314;2023-03-19T02:00:44;30.13;;;16.10;;
70126;SDS011;57491;42.694;23.314;2023-03-19T02:03:13;39.88;;;17.60;;
70126;SDS011;57491;42.694;23.314;2023-03-19T02:05:40;35.00;;;17.27;;
70126;SDS011;57491;42.694;23.314;2023-03-19T02:08:10;29.42;;;16.60;;
70126;SDS011;57491;42.694;23.314;2023-03-19T02:10:40;36.10;;;17.60;;
70126;SDS011;57491;42.694;23.314;2023-03-19T02:13:08;32.78;;;18.55;;
70126;SDS011;57491;42.694;23.314;2023-03-19T02:15:36;31.48;;;17.65;;
70126;SDS011;57491;42.694;23.314;2023-03-19T02:18:03;30.90;;;17.83;;
70126;SDS011;57491;42.694;23.314;2023-03-19T02:23:03;31.35;;;16.10;;
70126;SDS011;57491;42.694;23.314;2023-03-19T02:25:38;26.77;;;14.63;;
70126;SDS011;57491;42.694;23.314;2023-03-19T02:28:14;22.70;;;13.20;;
70126;SDS011;57491;42.694;23.314;2023-03-19T02:30:44;23.45;;;12.05;;
70126;SDS011;57491;42.694;23.314;2023-03-19T02:33:11;23.87;;;12.77;;
70126;SDS011;57491;42.694;23.314;2023-03-19T02:35:40;22.10;;;12.63;;
70126;SDS011;57491;42.694;23.314;2023-03-19T02:40:37;21.30;;;12.93;;
70126;SDS011;57491;42.694;23.314;2023-03-19T02:43:09;21.42;;;11.23;;
70126;SDS011;57491;42.694;23.314;2023-03-19T02:45:38;23.92;;;12.68;;
70126;SDS011;57491;42.694;23.314;2023-03-19T02:48:05;20.05;;;12.05;;
70126;SDS011;57491;42.694;23.314;2023-03-19T02:50:32;21.17;;;11.50;;
70126;SDS011;57491;42.694;23.314;2023-03-19T02:52:59;19.67;;;11.43;;
70126;SDS011;57491;42.694;23.314;2023-03-19T02:55:26;18.98;;;11.23;;
70126;SDS011;57491;42.694;23.314;2023-03-19T02:57:53;18.10;;;10.30;;
70126;SDS011;57491;42.694;23.314;2023-03-19T03:00:20;20.17;;;10.47;;
70126;SDS011;57491;42.694;23.314;2023-03-19T03:02:49;14.38;;;8.35;;
70126;SDS011;57491;42.694;23.314;2023-03-19T03:05:16;15.20;;;8.38;;
70126;SDS011;57491;42.694;23.314;2023-03-19T03:07:43;15.77;;;8.85;;
70126;SDS011;57491;42.694;23.314;2023-03-19T03:10:10;15.85;;;8.18;;
70126;SDS011;57491;42.694;23.314;2023-03-19T03:12:37;15.82;;;9.00;;
70126;SDS011;57491;42.694;23.314;2023-03-19T03:15:05;17.17;;;8.85;;
70126;SDS011;57491;42.694;23.314;2023-03-19T03:17:35;16.10;;;8.90;;
70126;SDS011;57491;42.694;23.314;2023-03-19T03:20:04;20.55;;;9.65;;
70126;SDS011;57491;42.694;23.314;2023-03-19T03:22:32;20.13;;;11.55;;
70126;SDS011;57491;42.694;23.314;2023-03-19T03:25:00;19.83;;;10.47;;
70126;SDS011;57491;42.694;23.314;2023-03-19T03:27:27;17.33;;;10.05;;
70126;SDS011;57491;42.694;23.314;2023-03-19T03:29:54;17.67;;;10.63;;
70126;SDS011;57491;42.694;23.314;2023-03-19T03:32:21;18.48;;;10.80;;
70126;SDS011;57491;42.694;23.314;2023-03-19T03:34:48;27.65;;;12.48;;
70126;SDS011;57491;42.694;23.314;2023-03-19T03:37:17;24.90;;;11.95;;
70126;SDS011;57491;42.694;23.314;2023-03-19T03:39:44;23.58;;;11.93;;
70126;SDS011;57491;42.694;23.314;2023-03-19T03:42:11;22.63;;;10.82;;
70126;SDS011;57491;42.694;23.314;2023-03-19T03:44:38;20.77;;;11.88;;
70126;SDS011;57491;42.694;23.314;2023-03-19T03:47:05;24.88;;;12.27;;
70126;SDS011;57491;42.694;23.314;2023-03-19T03:49:32;25.60;;;12.07;;
70126;SDS011;57491;42.694;23.314;2023-03-19T03:52:00;18.20;;;10.70;;
70126;SDS011;57491;42.694;23.314;2023-03-19T03:54:28;21.33;;;10.90;;
70126;SDS011;57491;42.694;23.314;2023-03-19T03:56:55;23.65;;;12.05;;
70126;SDS011;57491;42.694;23.314;2023-03-19T03:59:22;16.83;;;10.45;;
70126;SDS011;57491;42.694;23.314;2023-03-19T04:01:49;17.48;;;10.05;;
70126;SDS011;57491;42.694;23.314;2023-03-19T04:04:17;17.17;;;10.23;;
70126;SDS011;57491;42.694;23.314;2023-03-19T04:06:44;15.18;;;7.82;;
70126;SDS011;57491;42.694;23.314;2023-03-19T04:09:11;20.35;;;9.52;;
70126;SDS011;57491;42.694;23.314;2023-03-19T04:11:41;17.45;;;9.32;;
70126;SDS011;57491;42.694;23.314;2023-03-19T04:14:08;16.77;;;8.88;;
70126;SDS011;57491;42.694;23.314;2023-03-19T04:16:35;19.33;;;10.27;;
70126;SDS011;57491;42.694;23.314;2023-03-19T04:19:02;18.25;;;9.52;;
70126;SDS011;57491;42.694;23.314;2023-03-19T04:21:29;15.90;;;8.60;;
70126;SDS011;57491;42.694;23.314;2023-03-19T04:23:57;18.35;;;9.20;;
70126;SDS011;57491;42.694;23.314;2023-03-19T04:26:24;16.13;;;8.83;;
70126;SDS011;57491;42.694;23.314;2023-03-19T04:28:52;16.15;;;9.02;;
70126;SDS011;57491;42.694;23.314;2023-03-19T04:31:19;17.05;;;9.25;;
70126;SDS011;57491;42.694;23.314;2023-03-19T04:33:46;18.30;;;9.73;;
70126;SDS011;57491;42.694;23.314;2023-03-19T04:36:14;19.40;;;10.33;;
70126;SDS011;57491;42.694;23.314;2023-03-19T04:38:42;18.88;;;10.40;;
70126;SDS011;57491;42.694;23.314;2023-03-19T04:41:09;24.90;;;9.88;;
70126;SDS011;57491;42.694;23.314;2023-03-19T04:43:36;17.63;;;10.03;;
70126;SDS011;57491;42.694;23.314;2023-03-19T04:46:05;18.63;;;10.30;;
70126;SDS011;57491;42.694;23.314;2023-03-19T04:48:32;20.73;;;10.57;;
70126;SDS011;57491;42.694;23.314;2023-03-19T04:51:00;21.23;;;11.02;;
70126;SDS011;57491;42.694;23.314;2023-03-19T04:53:28;17.33;;;10.63;;
70126;SDS011;57491;42.694;23.314;2023-03-19T04:55:55;22.13;;;10.95;;
70126;SDS011;57491;42.694;23.314;2023-03-19T04:58:22;21.50;;;10.48;;
70126;SDS011;57491;42.694;23.314;2023-03-19T05:00:50;23.60;;;10.80;;
70126;SDS011;57491;42.694;23.314;2023-03-19T05:03:18;21.20;;;9.57;;
70126;SDS011;57491;42.694;23.314;2023-03-19T05:05:45;17.75;;;10.18;;
70126;SDS011;57491;42.694;23.314;2023-03-19T05:08:13;19.08;;;10.13;;
70126;SDS011;57491;42.694;23.314;2023-03-19T05:10:40;18.55;;;10.50;;
70126;SDS011;57491;42.694;23.314;2023-03-19T05:13:07;17.63;;;10.18;;
70126;SDS011;57491;42.694;23.314;2023-03-19T05:15:34;15.90;;;10.55;;
70126;SDS011;57491;42.694;23.314;2023-03-19T05:18:01;25.00;;;11.90;;
70126;SDS011;57491;42.694;23.314;2023-03-19T05:20:29;19.13;;;10.73;;
70126;SDS011;57491;42.694;23.314;2023-03-19T05:22:56;22.30;;;10.57;;
70126;SDS011;57491;42.694;23.314;2023-03-19T05:25:23;20.52;;;10.75;;
70126;SDS011;57491;42.694;23.314;2023-03-19T05:27:51;23.05;;;11.38;;
70126;SDS011;57491;42.694;23.314;2023-03-19T05:30:18;17.77;;;9.70;;
70126;SDS011;57491;42.694;23.314;2023-03-19T05:32:45;22.00;;;10.88;;
70126;SDS011;57491;42.694;23.314;2023-03-19T05:35:12;19.87;;;10.93;;
70126;SDS011;57491;42.694;23.314;2023-03-19T05:37:41;17.95;;;10.02;;
70126;SDS011;57491;42.694;23.314;2023-03-19T05:40:08;21.85;;;10.45;;
70126;SDS011;57491;42.694;23.314;2023-03-19T05:42:36;20.67;;;11.82;;
70126;SDS011;57491;42.694;23.314;2023-03-19T05:45:04;16.70;;;10.75;;
70126;SDS011;57491;42.694;23.314;2023-03-19T05:47:31;16.67;;;10.27;;
70126;SDS011;57491;42.694;23.314;2023-03-19T05:49:59;14.70;;;8.85;;
70126;SDS011;57491;42.694;23.314;2023-03-19T05:52:26;13.87;;;8.93;;
70126;SDS011;57491;42.694;23.314;2023-03-19T05:54:55;13.40;;;7.70;;
70126;SDS011;57491;42.694;23.314;2023-03-19T05:57:22;15.35;;;8.35;;
70126;SDS011;57491;42.694;23.314;2023-03-19T05:59:49;15.10;;;8.25;;
70126;SDS011;57491;42.694;23.314;2023-03-19T06:02:16;18.50;;;11.85;;
70126;SDS011;57491;42.694;23.314;2023-03-19T06:04:43;26.65;;;14.10;;
70126;SDS011;57491;42.694;23.314;2023-03-19T06:07:10;29.57;;;16.40;;
70126;SDS011;57491;42.694;23.314;2023-03-19T06:09:38;33.40;;;17.73;;
70126;SDS011;57491;42.694;23.314;2023-03-19T06:12:08;30.42;;;18.15;;
70126;SDS011;57491;42.694;23.314;2023-03-19T06:14:35;29.33;;;16.70;;
70126;SDS011;57491;42.694;23.314;2023-03-19T06:17:02;24.45;;;13.82;;
70126;SDS011;57491;42.694;23.314;2023-03-19T06:19:29;23.50;;;14.27;;
70126;SDS011;57491;42.694;23.314;2023-03-19T06:21:56;31.65;;;17.05;;
70126;SDS011;57491;42.694;23.314;2023-03-19T06:24:24;19.48;;;12.43;;
70126;SDS011;57491;42.694;23.314;2023-03-19T06:26:51;21.33;;;12.55;;
70126;SDS011;57491;42.694;23.314;2023-03-19T06:29:19;18.50;;;11.35;;
70126;SDS011;57491;42.694;23.314;2023-03-19T06:31:47;17.33;;;9.88;;
70126;SDS011;57491;42.694;23.314;2023-03-19T06:34:14;17.23;;;9.60;;
70126;SDS011;57491;42.694;23.314;2023-03-19T06:36:41;17.20;;;10.15;;
70126;SDS011;57491;42.694;23.314;2023-03-19T06:39:07;19.40;;;9.10;;
70126;SDS011;57491;42.694;23.314;2023-03-19T06:41:34;15.15;;;9.18;;
70126;SDS011;57491;42.694;23.314;2023-03-19T06:44:02;20.73;;;10.45;;
70126;SDS011;57491;42.694;23.314;2023-03-19T06:46:30;15.80;;;9.98;;
70126;SDS011;57491;42.694;23.314;2023-03-19T06:48:57;18.63;;;9.73;;
70126;SDS011;57491;42.694;23.314;2023-03-19T06:51:24;14.63;;;9.55;;
70126;SDS011;57491;42.694;23.314;2023-03-19T06:53:52;16.27;;;9.05;;
70126;SDS011;57491;42.694;23.314;2023-03-19T06:56:19;16.43;;;9.33;;
70126;SDS011;57491;42.694;23.314;2023-03-19T06:58:46;17.80;;;9.83;;
70126;SDS011;57491;42.694;23.314;2023-03-19T07:01:13;17.00;;;8.98;;
70126;SDS011;57491;42.694;23.314;2023-03-19T07:03:44;15.32;;;9.30;;
70126;SDS011;57491;42.694;23.314;2023-03-19T07:06:11;15.38;;;9.35;;
70126;SDS011;57491;42.694;23.314;2023-03-19T07:08:38;12.87;;;8.67;;
70126;SDS011;57491;42.694;23.314;2023-03-19T07:11:10;15.20;;;8.20;;
70126;SDS011;57491;42.694;23.314;2023-03-19T07:13:38;16.60;;;9.35;;
70126;SDS011;57491;42.694;23.314;2023-03-19T07:16:05;17.07;;;10.43;;
70126;SDS011;57491;42.694;23.314;2023-03-19T07:18:33;24.27;;;12.05;;
70126;SDS011;57491;42.694;23.314;2023-03-19T07:21:01;21.13;;;12.10;;
70126;SDS011;57491;42.694;23.314;2023-03-19T07:23:28;19.88;;;11.60;;
70126;SDS011;57491;42.694;23.314;2023-03-19T07:25:55;19.55;;;12.05;;
70126;SDS011;57491;42.694;23.314;2023-03-19T07:28:22;17.80;;;11.20;;
70126;SDS011;57491;42.694;23.314;2023-03-19T07:30:50;18.60;;;10.55;;
70126;SDS011;57491;42.694;23.314;2023-03-19T07:33:17;17.85;;;11.05;;
70126;SDS011;57491;42.694;23.314;2023-03-19T07:35:44;15.27;;;10.00;;
70126;SDS011;57491;42.694;23.314;2023-03-19T07:38:13;17.88;;;11.52;;
70126;SDS011;57491;42.694;23.314;2023-03-19T07:40:40;16.50;;;11.00;;
70126;SDS011;57491;42.694;23.314;2023-03-19T07:43:07;18.60;;;11.05;;
70126;SDS011;57491;42.694;23.314;2023-03-19T07:45:34;16.10;;;10.30;;
70126;SDS011;57491;42.694;23.314;2023-03-19T07:48:01;17.63;;;11.23;;
70126;SDS011;57491;42.694;23.314;2023-03-19T07:50:28;16.48;;;10.85;;
70126;SDS011;57491;42.694;23.314;2023-03-19T07:52:56;18.30;;;10.27;;
70126;SDS011;57491;42.694;23.314;2023-03-19T07:55:25;16.55;;;10.52;;
70126;SDS011;57491;42.694;23.314;2023-03-19T07:57:52;13.05;;;10.07;;
70126;SDS011;57491;42.694;23.314;2023-03-19T08:00:19;14.75;;;9.98;;
70126;SDS011;57491;42.694;23.314;2023-03-19T08:02:46;16.95;;;11.00;;
70126;SDS011;57491;42.694;23.314;2023-03-19T08:05:13;16.25;;;9.93;;
70126;SDS011;57491;42.694;23.314;2023-03-19T08:07:40;14.02;;;8.52;;
70126;SDS011;57491;42.694;23.314;2023-03-19T08:10:08;13.55;;;9.13;;
70126;SDS011;57491;42.694;23.314;2023-03-19T08:12:37;14.73;;;9.70;;
70126;SDS011;57491;42.694;23.314;2023-03-19T08:15:05;14.70;;;10.40;;
70126;SDS011;57491;42.694;23.314;2023-03-19T08:17:34;17.75;;;9.98;;
70126;SDS011;57491;42.694;23.314;2023-03-19T08:20:03;15.30;;;10.05;;
70126;SDS011;57491;42.694;23.314;2023-03-19T08:22:33;15.15;;;9.45;;
70126;SDS011;57491;42.694;23.314;2023-03-19T08:25:00;15.68;;;8.80;;
70126;SDS011;57491;42.694;23.314;2023-03-19T08:27:27;16.57;;;10.50;;
70126;SDS011;57491;42.694;23.314;2023-03-19T08:29:56;15.38;;;9.23;;
70126;SDS011;57491;42.694;23.314;2023-03-19T08:32:23;13.60;;;9.85;;
70126;SDS011;57491;42.694;23.314;2023-03-19T08:34:50;17.37;;;10.10;;
70126;SDS011;57491;42.694;23.314;2023-03-19T08:37:17;14.05;;;9.95;;
70126;SDS011;57491;42.694;23.314;2023-03-19T08:39:44;16.77;;;10.73;;
70126;SDS011;57491;42.694;23.314;2023-03-19T08:42:11;17.33;;;10.20;;
70126;SDS011;57491;42.694;23.314;2023-03-19T08:44:39;13.50;;;9.10;;
70126;SDS011;57491;42.694;23.314;2023-03-19T08:47:07;13.73;;;9.20;;
70126;SDS011;57491;42.694;23.314;2023-03-19T08:49:35;13.40;;;9.45;;
70126;SDS011;57491;42.694;23.314;2023-03-19T08:52:02;14.37;;;9.57;;
70126;SDS011;57491;42.694;23.314;2023-03-19T08:54:30;13.95;;;10.15;;
70126;SDS011;57491;42.694;23.314;2023-03-19T08:56:58;15.80;;;10.63;;
70126;SDS011;57491;42.694;23.314;2023-03-19T08:59:26;12.57;;;8.13;;
70126;SDS011;57491;42.694;23.314;2023-03-19T09:01:53;11.15;;;8.05;;
70126;SDS011;57491;42.694;23.314;2023-03-19T09:04:21;10.10;;;8.52;;
70126;SDS011;57491;42.694;23.314;2023-03-19T09:06:48;14.38;;;8.57;;
70126;SDS011;57491;42.694;23.314;2023-03-19T09:09:16;17.65;;;9.23;;
70126;SDS011;57491;42.694;23.314;2023-03-19T09:11:44;11.73;;;8.20;;
70126;SDS011;57491;42.694;23.314;2023-03-19T09:14:11;14.95;;;9.70;;
70126;SDS011;57491;42.694;23.314;2023-03-19T09:16:38;13.93;;;9.50;;
70126;SDS011;57491;42.694;23.314;2023-03-19T09:19:06;14.30;;;9.73;;
70126;SDS011;57491;42.694;23.314;2023-03-19T09:21:35;12.52;;;7.95;;
70126;SDS011;57491;42.694;23.314;2023-03-19T09:24:02;12.85;;;7.88;;
70126;SDS011;57491;42.694;23.314;2023-03-19T09:26:31;11.23;;;6.90;;
70126;SDS011;57491;42.694;23.314;2023-03-19T09:28:58;9.07;;;7.00;;
70126;SDS011;57491;42.694;23.314;2023-03-19T09:31:25;9.98;;;7.57;;
70126;SDS011;57491;42.694;23.314;2023-03-19T09:33:52;10.50;;;7.87;;
70126;SDS011;57491;42.694;23.314;2023-03-19T09:36:19;14.45;;;9.20;;
70126;SDS011;57491;42.694;23.314;2023-03-19T09:38:48;15.97;;;9.73;;
70126;SDS011;57491;42.694;23.314;2023-03-19T09:41:17;14.32;;;7.93;;
70126;SDS011;57491;42.694;23.314;2023-03-19T09:43:59;15.88;;;8.68;;
70126;SDS011;57491;42.694;23.314;2023-03-19T09:46:39;16.25;;;9.35;;
70126;SDS011;57491;42.694;23.314;2023-03-19T09:49:15;13.77;;;10.32;;
70126;SDS011;57491;42.694;23.314;2023-03-19T09:51:49;12.98;;;8.07;;
70126;SDS011;57491;42.694;23.314;2023-03-19T09:54:25;10.75;;;9.13;;
70126;SDS011;57491;42.694;23.314;2023-03-19T09:56:55;14.33;;;9.80;;
70126;SDS011;57491;42.694;23.314;2023-03-19T09:59:22;17.58;;;10.30;;
70126;SDS011;57491;42.694;23.314;2023-03-19T10:01:52;14.57;;;9.75;;
70126;SDS011;57491;42.694;23.314;2023-03-19T10:07:19;14.93;;;9.45;;
70126;SDS011;57491;42.694;23.314;2023-03-19T10:09:59;11.70;;;8.90;;
70126;SDS011;57491;42.694;23.314;2023-03-19T10:12:38;10.15;;;9.10;;
70126;SDS011;57491;42.694;23.314;2023-03-19T10:15:20;13.10;;;9.18;;
70126;SDS011;57491;42.694;23.314;2023-03-19T10:17:51;13.98;;;8.02;;
70126;SDS011;57491;42.694;23.314;2023-03-19T10:20:27;9.15;;;6.63;;
70126;SDS011;57491;42.694;23.314;2023-03-19T10:23:11;8.88;;;7.13;;
70126;SDS011;57491;42.694;23.314;2023-03-19T10:25:49;8.52;;;7.35;;
70126;SDS011;57491;42.694;23.314;2023-03-19T10:28:19;11.38;;;7.95;;
70126;SDS011;57491;42.694;23.314;2023-03-19T10:30:49;11.02;;;7.38;;
70126;SDS011;57491;42.694;23.314;2023-03-19T10:33:29;11.43;;;7.95;;
70126;SDS011;57491;42.694;23.314;2023-03-19T10:36:04;10.40;;;7.25;;
70126;SDS011;57491;42.694;23.314;2023-03-19T10:38:38;12.20;;;7.53;;
70126;SDS011;57491;42.694;23.314;2023-03-19T10:41:15;10.63;;;7.75;;
70126;SDS011;57491;42.694;23.314;2023-03-19T10:43:52;9.68;;;7.50;;
70126;SDS011;57491;42.694;23.314;2023-03-19T10:46:22;10.32;;;7.82;;
70126;SDS011;57491;42.694;23.314;2023-03-19T10:51:17;9.30;;;7.25;;
70126;SDS011;57491;42.694;23.314;2023-03-19T10:53:48;10.65;;;7.90;;
70126;SDS011;57491;42.694;23.314;2023-03-19T10:56:19;11.35;;;7.60;;
70126;SDS011;57491;42.694;23.314;2023-03-19T10:58:59;9.63;;;7.47;;
70126;SDS011;57491;42.694;23.314;2023-03-19T11:01:33;11.48;;;8.27;;
70126;SDS011;57491;42.694;23.314;2023-03-19T11:04:01;13.38;;;7.85;;
70126;SDS011;57491;42.694;23.314;2023-03-19T11:06:38;9.07;;;8.13;;
70126;SDS011;57491;42.694;23.314;2023-03-19T11:09:11;9.18;;;8.27;;
70126;SDS011;57491;42.694;23.314;2023-03-19T11:11:45;8.95;;;6.78;;
70126;SDS011;57491;42.694;23.314;2023-03-19T11:14:14;9.85;;;7.63;;
70126;SDS011;57491;42.694;23.314;2023-03-19T11:16:50;12.27;;;7.55;;
70126;SDS011;57491;42.694;23.314;2023-03-19T11:19:22;8.10;;;6.97;;
70126;SDS011;57491;42.694;23.314;2023-03-19T11:22:02;11.65;;;7.22;;
70126;SDS011;57491;42.694;23.314;2023-03-19T11:24:36;9.25;;;6.80;;
70126;SDS011;57491;42.694;23.314;2023-03-19T11:27:05;8.50;;;6.57;;
70126;SDS011;57491;42.694;23.314;2023-03-19T11:29:33;7.93;;;6.13;;
70126;SDS011;57491;42.694;23.314;2023-03-19T11:32:06;8.15;;;6.15;;
70126;SDS011;57491;42.694;23.314;2023-03-19T11:34:44;8.15;;;6.90;;
70126;SDS011;57491;42.694;23.314;2023-03-19T11:37:19;9.07;;;6.97;;
70126;SDS011;57491;42.694;23.314;2023-03-19T11:39:58;9.25;;;6.28;;
70126;SDS011;57491;42.694;23.314;2023-03-19T11:42:40;8.40;;;5.82;;
70126;SDS011;57491;42.694;23.314;2023-03-19T11:45:20;6.38;;;5.78;;
70126;SDS011;57491;42.694;23.314;2023-03-19T11:47:58;7.47;;;5.95;;
70126;SDS011;57491;42.694;23.314;2023-03-19T11:50:39;9.18;;;6.30;;
70126;SDS011;57491;42.694;23.314;2023-03-19T11:53:18;9.23;;;6.47;;
70126;SDS011;57491;42.694;23.314;2023-03-19T11:55:50;9.10;;;6.80;;
70126;SDS011;57491;42.694;23.314;2023-03-19T12:01:11;8.93;;;6.78;;
70126;SDS011;57491;42.694;23.314;2023-03-19T12:06:30;10.55;;;7.93;;
70126;SDS011;57491;42.694;23.314;2023-03-19T12:09:09;8.95;;;6.78;;
70126;SDS011;57491;42.694;23.314;2023-03-19T12:11:45;7.68;;;5.90;;
70126;SDS011;57491;42.694;23.314;2023-03-19T12:14:26;8.43;;;7.53;;
70126;SDS011;57491;42.694;23.314;2023-03-19T12:17:09;7.40;;;6.40;;
70126;SDS011;57491;42.694;23.314;2023-03-19T12:20:00;12.10;;;7.03;;
70126;SDS011;57491;42.694;23.314;2023-03-19T12:22:43;10.02;;;7.68;;
70126;SDS011;57491;42.694;23.314;2023-03-19T12:25:20;8.07;;;7.13;;
70126;SDS011;57491;42.694;23.314;2023-03-19T12:27:56;8.10;;;7.30;;
70126;SDS011;57491;42.694;23.314;2023-03-19T12:30:33;10.50;;;7.28;;
70126;SDS011;57491;42.694;23.314;2023-03-19T12:36:01;7.40;;;6.50;;
70126;SDS011;57491;42.694;23.314;2023-03-19T12:38:33;7.88;;;6.55;;
70126;SDS011;57491;42.694;23.314;2023-03-19T12:41:05;9.55;;;6.20;;
70126;SDS011;57491;42.694;23.314;2023-03-19T12:43:43;7.57;;;5.90;;
70126;SDS011;57491;42.694;23.314;2023-03-19T12:46:19;6.97;;;6.13;;
70126;SDS011;57491;42.694;23.314;2023-03-19T12:48:52;7.25;;;5.85;;
70126;SDS011;57491;42.694;23.314;2023-03-19T12:51:25;6.97;;;6.30;;
70126;SDS011;57491;42.694;23.314;2023-03-19T12:53:58;7.75;;;5.57;;
70126;SDS011;57491;42.694;23.314;2023-03-19T12:56:30;7.47;;;6.00;;
70126;SDS011;57491;42.694;23.314;2023-03-19T12:59:04;8.27;;;6.20;;
70126;SDS011;57491;42.694;23.314;2023-03-19T13:01:39;8.35;;;6.30;;
70126;SDS011;57491;42.694;23.314;2023-03-19T13:04:10;9.43;;;6.18;;
70126;SDS011;57491;42.694;23.314;2023-03-19T13:06:43;9.13;;;5.97;;
70126;SDS011;57491;42.694;23.314;2023-03-19T13:11:52;8.95;;;5.50;;
70126;SDS011;57491;42.694;23.314;2023-03-19T13:14:25;7.88;;;5.63;;
70126;SDS011;57491;42.694;23.314;2023-03-19T13:17:04;6.63;;;5.40;;
70126;SDS011;57491;42.694;23.314;2023-03-19T13:19:39;9.52;;;6.63;;
70126;SDS011;57491;42.694;23.314;2023-03-19T13:22:12;7.93;;;5.90;;
70126;SDS011;57491;42.694;23.314;2023-03-19T13:24:42;7.20;;;5.13;;
70126;SDS011;57491;42.694;23.314;2023-03-19T13:27:13;6.72;;;5.50;;
70126;SDS011;57491;42.694;23.314;2023-03-19T13:30:05;5.72;;;4.72;;
70126;SDS011;57491;42.694;23.314;2023-03-19T13:32:43;7.32;;;4.53;;
70126;SDS011;57491;42.694;23.314;2023-03-19T13:38:06;9.70;;;4.45;;
70126;SDS011;57491;42.694;23.314;2023-03-19T13:40:44;8.40;;;5.78;;
70126;SDS011;57491;42.694;23.314;2023-03-19T13:43:20;8.77;;;4.72;;
70126;SDS011;57491;42.694;23.314;2023-03-19T13:46:33;7.18;;;5.38;;
70126;SDS011;57491;42.694;23.314;2023-03-19T13:49:22;6.13;;;4.68;;
70126;SDS011;57491;42.694;23.314;2023-03-19T13:51:56;7.03;;;4.07;;
70126;SDS011;57491;42.694;23.314;2023-03-19T13:54:38;6.85;;;4.20;;
70126;SDS011;57491;42.694;23.314;2023-03-19T13:57:16;10.25;;;4.40;;
70126;SDS011;57491;42.694;23.314;2023-03-19T13:59:47;7.53;;;4.60;;
70126;SDS011;57491;42.694;23.314;2023-03-19T14:05:17;6.97;;;5.10;;
70126;SDS011;57491;42.694;23.314;2023-03-19T14:07:51;8.18;;;4.88;;
70126;SDS011;57491;42.694;23.314;2023-03-19T14:10:21;7.57;;;5.18;;
70126;SDS011;57491;42.694;23.314;2023-03-19T14:12:57;8.18;;;5.65;;
70126;SDS011;57491;42.694;23.314;2023-03-19T14:15:28;10.95;;;5.63;;
70126;SDS011;57491;42.694;23.314;2023-03-19T14:20:27;8.05;;;5.22;;
70126;SDS011;57491;42.694;23.314;2023-03-19T14:23:17;8.70;;;5.13;;
70126;SDS011;57491;42.694;23.314;2023-03-19T14:25:54;10.38;;;5.13;;
70126;SDS011;57491;42.694;23.314;2023-03-19T14:28:50;9.32;;;5.43;;
70126;SDS011;57491;42.694;23.314;2023-03-19T14:31:21;10.20;;;5.53;;
70126;SDS011;57491;42.694;23.314;2023-03-19T14:33:55;11.38;;;6.32;;
70126;SDS011;57491;42.694;23.314;2023-03-19T14:36:28;10.15;;;5.95;;
70126;SDS011;57491;42.694;23.314;2023-03-19T14:38:57;8.80;;;5.50;;
70126;SDS011;57491;42.694;23.314;2023-03-19T14:41:27;7.10;;;4.38;;
70126;SDS011;57491;42.694;23.314;2023-03-19T14:44:07;7.68;;;5.18;;
70126;SDS011;57491;42.694;23.314;2023-03-19T14:46:55;11.32;;;5.80;;
70126;SDS011;57491;42.694;23.314;2023-03-19T14:52:39;8.43;;;5.25;;
70126;SDS011;57491;42.694;23.314;2023-03-19T14:55:12;7.28;;;4.82;;
70126;SDS011;57491;42.694;23.314;2023-03-19T14:57:40;11.05;;;5.85;;
70126;SDS011;57491;42.694;23.314;2023-03-19T15:00:11;8.73;;;4.60;;
70126;SDS011;57491;42.694;23.314;2023-03-19T15:02:40;8.32;;;5.15;;
70126;SDS011;57491;42.694;23.314;2023-03-19T15:05:12;8.73;;;4.55;;
70126;SDS011;57491;42.694;23.314;2023-03-19T15:07:46;9.07;;;5.05;;
70126;SDS011;57491;42.694;23.314;2023-03-19T15:10:16;7.35;;;4.88;;
70126;SDS011;57491;42.694;23.314;2023-03-19T15:15:52;12.23;;;6.22;;